Terminal Aerodrome Forecast
Issued by NWS Albuquerque, NM

Home | Current Version | Previous Version | Text Only | Print | Product List | Glossary On
Versions: 1 2 3 4 5 6 7 8 9 10 11 12 13 14
000
FTUS45 KABQ 271727
TAFABQ
TAF
KABQ 271727Z 2718/2818 29006KT P6SM FEW090 SCT150
     FM272100 32008KT P6SM SCT090 SCT150
     FM280000 09013KT P6SM VCSH BKN090
     FM280300 12008KT P6SM BKN120
     FM280700 VRB06KT P6SM FEW150
     FM281700 21006KT P6SM FEW090=

USA.gov is the U.S. government's official web portal to all federal, state and local government web resources and services.